Providence, Utah
Current Conditions -  °F | °C
As of 8:51 AM on Thursday 27 Nov 2014 (Local Time) from KLGU Reporting Station
Clear Clear  
Wind Chill: 40°   Ceiling: Unl
Heat Index: 40°   Visibility: 10mi
Dew Point: 30°   Wind: 0mph
Humidity: 68%   Direction: NA
Pressure: 30.28"   Gusts: NA
Location:  41.71°N, 111.82°W
Report Text: KLGU 271551Z AUTO 00000KT 10SM CLR 04/M01 A3028 RMK AO2 SLP259 T00441011
Loading
Personal Weather Stations






























Interactive Weather Map New forecast layout! Learn more

10-Day Weather Forecast

Advertisements
Track Severe Weather on mobile